Elizabethtown, Ohio
Current Conditions -  °F | °C
As of 3:13 AM on Monday 26 Jan 2015 (Local Time) from KCVG Reporting Station
Light Snow Light Snow  
Wind Chill: 11°   Ceiling: 2000
Heat Index: 25°   Visibility: 2mi
Dew Point: 21°   Wind: 18mph
Humidity: 86%   Direction: 350°N
Pressure: 29.75"   Gusts: NA
Location:  39.145°N, 84.7527°W
Report Text: KCVG 260813Z 35016KT 2SM -SN BR SCT011 OVC020 M04/M06 A2975 RMK AO2 CIG 011 36R P0000
Loading
Personal Weather Stations






























Interactive Weather Map New forecast layout! Learn more

10-Day Weather Forecast

Advertisements
Track Severe Weather on mobile